createdAt,value
2023-02-20T00:02:43.291Z,5.98
2023-02-20T00:06:46.627Z,5.97
2023-02-20T00:10:49.565Z,5.98
2023-02-20T00:14:53.935Z,5.99
2023-02-20T00:18:56.770Z,6.00
2023-02-20T00:22:59.924Z,5.98
2023-02-20T00:27:02.755Z,6.02
2023-02-20T00:31:08.558Z,6.04
2023-02-20T00:35:13.398Z,6.04
2023-02-20T00:39:16.791Z,6.06
2023-02-20T00:43:20.278Z,6.04
2023-02-20T00:47:24.691Z,6.02
2023-02-20T00:51:27.703Z,6.04
2023-02-20T00:55:30.688Z,6.02
2023-02-20T00:59:33.821Z,6.06
2023-02-20T01:03:39.078Z,6.07
2023-02-20T01:07:43.150Z,6.13
2023-02-20T01:11:46.816Z,6.19
2023-02-20T01:15:50.911Z,6.29
2023-02-20T01:19:55.913Z,6.36
2023-02-20T01:23:58.843Z,6.45
2023-02-20T01:28:01.920Z,6.47
2023-02-20T01:32:04.982Z,6.51
2023-02-20T01:36:10.223Z,6.54
2023-02-20T01:40:17.715Z,6.53
2023-02-20T01:44:23.864Z,6.52
2023-02-20T01:48:27.394Z,6.53
2023-02-20T01:52:34.613Z,6.47
2023-02-20T01:56:38.643Z,6.42
2023-02-20T02:00:42.428Z,6.41
2023-02-20T02:04:47.530Z,6.40
2023-02-20T02:08:55.130Z,6.40
2023-02-20T02:12:58.496Z,6.34
2023-02-20T02:17:35.753Z,6.29
2023-02-20T02:22:14.373Z,6.28
2023-02-20T02:26:48.288Z,6.23
2023-02-20T02:31:31.806Z,6.19
2023-02-20T02:36:03.739Z,6.19
2023-02-20T02:40:15.284Z,6.18
2023-02-20T02:44:24.115Z,6.17
2023-02-20T02:48:32.374Z,6.14
2023-02-20T02:52:46.680Z,6.13
2023-02-20T02:56:51.043Z,6.14
2023-02-20T03:00:58.588Z,6.16
2023-02-20T03:05:03.934Z,6.12
2023-02-20T03:09:12.154Z,6.14
2023-02-20T03:13:17.789Z,6.12
2023-02-20T03:17:29.328Z,6.11
2023-02-20T03:21:34.843Z,6.14
2023-02-20T03:25:45.467Z,6.17
2023-02-20T03:29:53.160Z,6.17
2023-02-20T03:34:19.293Z,6.16
2023-02-20T03:38:43.418Z,6.18
2023-02-20T03:43:07.930Z,6.15
2023-02-20T03:47:20.022Z,6.17
2023-02-20T03:51:24.851Z,6.14
2023-02-20T03:55:39.346Z,6.11
2023-02-20T03:59:51.449Z,6.10
2023-02-20T04:03:58.858Z,6.08
2023-02-20T04:08:07.321Z,6.09
2023-02-20T04:12:17.904Z,6.11
2023-02-20T04:16:23.291Z,6.15
2023-02-20T04:20:28.965Z,6.17
2023-02-20T04:24:45.685Z,6.19
2023-02-20T04:28:49.589Z,6.19
2023-02-20T04:32:54.260Z,6.21
2023-02-20T04:37:07.010Z,6.25
2023-02-20T04:41:10.398Z,6.28
2023-02-20T04:45:13.731Z,6.32
2023-02-20T04:49:17.312Z,6.32
2023-02-20T04:53:28.426Z,6.34
2023-02-20T04:57:31.580Z,6.34
2023-02-20T05:01:34.957Z,6.35
2023-02-20T05:05:38.232Z,6.35
2023-02-20T05:09:44.371Z,6.43
2023-02-20T05:13:47.258Z,6.43
2023-02-20T05:17:50.421Z,6.45
2023-02-20T05:22:12.209Z,6.50
2023-02-20T05:26:19.792Z,6.50
2023-02-20T05:30:29.026Z,6.52
2023-02-20T05:34:32.973Z,6.59
2023-02-20T05:38:36.907Z,6.64
2023-02-20T05:42:42.942Z,6.65
2023-02-20T05:46:48.765Z,6.68
2023-02-20T05:50:54.000Z,6.70
2023-02-20T05:54:56.841Z,6.74
2023-02-20T05:59:02.700Z,6.75
2023-02-20T06:03:07.981Z,6.80
2023-02-20T06:07:11.600Z,6.82
2023-02-20T06:11:15.953Z,6.88
2023-02-20T06:15:20.638Z,6.91
2023-02-20T06:19:25.972Z,6.94
2023-02-20T06:23:29.212Z,6.99
2023-02-20T06:27:32.192Z,7.02
2023-02-20T06:31:37.085Z,7.05
2023-02-20T06:35:40.056Z,7.06
2023-02-20T06:39:45.859Z,7.12
2023-02-20T06:43:48.833Z,7.16
2023-02-20T06:47:53.163Z,7.17
2023-02-20T06:51:56.331Z,7.18
2023-02-20T06:55:59.154Z,7.24
2023-02-20T07:00:02.055Z,7.24
2023-02-20T07:04:07.605Z,7.29
2023-02-20T07:08:10.831Z,7.30
2023-02-20T07:12:14.659Z,7.35
2023-02-20T07:16:18.080Z,7.38
2023-02-20T07:20:22.666Z,7.39
2023-02-20T07:24:25.482Z,7.45
2023-02-20T07:28:28.543Z,7.49
2023-02-20T07:32:31.513Z,7.49
2023-02-20T07:36:36.538Z,7.58
2023-02-20T07:40:40.227Z,7.59
2023-02-20T07:44:46.763Z,7.59
2023-02-20T07:48:50.391Z,7.66
2023-02-20T07:52:54.626Z,7.65
2023-02-20T07:56:58.212Z,7.68
2023-02-20T08:01:02.003Z,7.73
2023-02-20T08:05:05.365Z,7.79
2023-02-20T08:09:11.904Z,7.82
2023-02-20T08:13:15.245Z,7.86
2023-02-20T08:17:18.505Z,7.89
2023-02-20T08:21:21.723Z,7.94
2023-02-20T08:25:25.923Z,7.97
2023-02-20T08:29:28.856Z,8.04
2023-02-20T08:33:31.807Z,8.07
2023-02-20T08:37:34.826Z,8.11
2023-02-20T08:41:44.605Z,8.12
2023-02-20T08:45:47.874Z,8.16
2023-02-20T08:49:50.854Z,8.22
2023-02-20T08:53:53.823Z,8.19
2023-02-20T08:57:58.885Z,8.27
2023-02-20T09:02:01.998Z,8.30
2023-02-20T09:06:06.605Z,8.30
2023-02-20T09:10:10.586Z,8.33
2023-02-20T09:14:15.500Z,8.35
2023-02-20T09:18:18.829Z,8.37
2023-02-20T09:22:24.040Z,8.40
2023-02-20T09:26:27.033Z,8.42
2023-02-20T09:30:37.605Z,8.43
2023-02-20T09:34:41.854Z,8.48
2023-02-20T09:38:44.933Z,8.50
2023-02-20T09:43:00.316Z,8.61
2023-02-20T09:47:21.044Z,8.65
2023-02-20T09:51:26.620Z,8.66
2023-02-20T09:55:36.008Z,8.69
2023-02-20T09:59:43.349Z,8.73
2023-02-20T10:03:55.905Z,8.73
2023-02-20T10:07:59.737Z,8.75
2023-02-20T10:12:14.210Z,8.73
2023-02-20T10:16:29.603Z,8.75
2023-02-20T10:20:43.540Z,8.78
2023-02-20T10:25:02.490Z,8.81
2023-02-20T10:29:18.990Z,8.87
2023-02-20T10:33:27.233Z,8.84
2023-02-20T10:37:47.052Z,8.88
2023-02-20T10:41:56.800Z,8.88
2023-02-20T10:46:05.103Z,8.91
2023-02-20T10:50:13.819Z,8.86
2023-02-20T10:54:22.601Z,8.87
2023-02-20T10:58:34.918Z,8.84
2023-02-20T11:02:42.778Z,8.85
2023-02-20T11:06:47.788Z,8.83
2023-02-20T11:10:57.033Z,8.90
2023-02-20T11:15:02.797Z,8.94
2023-02-20T11:19:11.478Z,8.92
2023-02-20T11:23:37.430Z,8.93
2023-02-20T11:27:42.877Z,9.02
2023-02-20T11:31:47.806Z,9.01
2023-02-20T11:35:52.764Z,9.05
2023-02-20T11:39:57.754Z,9.05
2023-02-20T11:44:25.860Z,8.99
2023-02-20T11:48:29.104Z,8.99
2023-02-20T11:52:32.403Z,8.93
2023-02-20T11:56:35.565Z,8.95
2023-02-20T12:00:50.161Z,8.98
2023-02-20T12:05:12.538Z,8.98
2023-02-20T12:09:20.040Z,9.00
2023-02-20T12:13:24.553Z,8.98
2023-02-20T12:17:38.954Z,9.02
2023-02-20T12:21:57.970Z,8.97
2023-02-20T12:26:19.352Z,8.95
2023-02-20T12:30:36.718Z,8.94
2023-02-20T12:35:11.415Z,8.93
2023-02-20T12:39:30.229Z,8.89
2023-02-20T12:43:40.873Z,8.93
2023-02-20T12:47:46.168Z,8.98
2023-02-20T12:51:58.035Z,8.97
2023-02-20T12:56:15.934Z,8.95
2023-02-20T13:00:32.194Z,8.97
2023-02-20T13:04:46.473Z,8.97
2023-02-20T13:09:00.092Z,8.96
2023-02-20T13:13:04.430Z,8.92
2023-02-20T13:17:20.689Z,8.96
2023-02-20T13:21:26.659Z,8.96
2023-02-20T13:25:39.389Z,8.97
2023-02-20T13:29:58.286Z,8.96
2023-02-20T13:34:30.392Z,9.03
2023-02-20T13:38:33.996Z,9.06
2023-02-20T13:42:38.346Z,9.08
2023-02-20T13:46:56.807Z,9.06
2023-02-20T13:51:34.762Z,9.10
2023-02-20T13:55:37.930Z,9.15
2023-02-20T13:59:42.251Z,9.17
2023-02-20T14:03:46.332Z,9.19
2023-02-20T14:07:49.795Z,9.23
2023-02-20T14:11:55.974Z,9.23
2023-02-20T14:16:01.321Z,9.27
2023-02-20T14:20:14.372Z,9.28
2023-02-20T14:24:20.219Z,9.31
2023-02-20T14:28:24.043Z,9.36
2023-02-20T14:32:28.760Z,9.37
2023-02-20T14:36:51.702Z,9.39
2023-02-20T14:40:54.782Z,9.40
2023-02-20T14:45:02.700Z,9.43
2023-02-20T14:49:11.123Z,9.43
2023-02-20T14:53:18.138Z,9.47
2023-02-20T14:57:21.269Z,9.48
2023-02-20T15:01:39.083Z,9.47
2023-02-20T15:05:44.994Z,9.46
2023-02-20T15:09:50.807Z,9.48
2023-02-20T15:13:54.257Z,9.50
2023-02-20T15:18:07.992Z,9.52
2023-02-20T15:22:29.660Z,9.54
2023-02-20T15:26:36.068Z,9.53
2023-02-20T15:31:05.387Z,9.54
2023-02-20T15:35:16.000Z,9.56
2023-02-20T15:39:20.811Z,9.54
2023-02-20T15:43:38.163Z,9.52
2023-02-20T15:47:46.767Z,9.56
2023-02-20T15:51:54.106Z,9.54
2023-02-20T15:56:02.685Z,9.49
2023-02-20T16:00:07.874Z,9.48
2023-02-20T16:04:16.000Z,9.44
2023-02-20T16:08:20.551Z,9.46
2023-02-20T16:12:31.684Z,9.44
2023-02-20T16:16:37.198Z,9.45
2023-02-20T16:20:40.273Z,9.47
2023-02-20T16:24:44.605Z,9.48
2023-02-20T16:28:53.974Z,9.49
2023-02-20T16:32:57.081Z,9.46
2023-02-20T16:37:00.788Z,9.45
2023-02-20T16:41:04.323Z,9.48
2023-02-20T16:45:14.158Z,9.45
2023-02-20T16:49:17.563Z,9.42
2023-02-20T16:53:21.690Z,9.44
2023-02-20T16:57:26.262Z,9.37
2023-02-20T17:01:31.571Z,9.33
2023-02-20T17:05:37.463Z,9.33
2023-02-20T17:09:45.071Z,9.27
2023-02-20T17:13:49.044Z,9.29
2023-02-20T17:17:55.129Z,9.26
2023-02-20T17:21:58.183Z,9.25
2023-02-20T17:26:01.412Z,9.21
2023-02-20T17:30:04.902Z,9.23
2023-02-20T17:34:09.377Z,9.20
2023-02-20T17:38:12.677Z,9.22
2023-02-20T17:42:26.610Z,9.16
2023-02-20T17:46:29.545Z,9.16
2023-02-20T17:50:33.946Z,9.15
2023-02-20T17:54:36.808Z,9.12
2023-02-20T17:58:41.034Z,9.14
2023-02-20T18:02:44.630Z,9.12
2023-02-20T18:06:49.221Z,9.12
2023-02-20T18:10:52.169Z,9.12
2023-02-20T18:14:55.768Z,9.09
2023-02-20T18:18:59.523Z,9.08
2023-02-20T18:23:04.421Z,9.07
2023-02-20T18:27:07.841Z,9.08
2023-02-20T18:31:12.223Z,9.09
2023-02-20T18:35:17.415Z,9.09
2023-02-20T18:39:22.544Z,9.08
2023-02-20T18:43:25.606Z,9.07
2023-02-20T18:47:28.952Z,9.12
2023-02-20T18:51:34.875Z,9.13
2023-02-20T18:55:39.470Z,9.06
2023-02-20T18:59:43.050Z,9.05
2023-02-20T19:03:47.121Z,9.08
2023-02-20T19:07:50.948Z,9.08
2023-02-20T19:11:57.624Z,9.08
2023-02-20T19:16:02.844Z,9.07
2023-02-20T19:20:11.445Z,9.06
2023-02-20T19:24:14.346Z,9.05
2023-02-20T19:28:19.330Z,9.08
2023-02-20T19:32:23.551Z,9.07
2023-02-20T19:36:41.011Z,9.07
2023-02-20T19:40:52.018Z,9.06
2023-02-20T19:45:02.121Z,9.04
2023-02-20T19:49:12.456Z,9.07
2023-02-20T19:53:16.453Z,9.07
2023-02-20T19:57:19.510Z,9.07
2023-02-20T20:01:23.937Z,9.07
2023-02-20T20:05:28.378Z,9.09
2023-02-20T20:09:37.380Z,9.11
2023-02-20T20:13:40.699Z,9.11
2023-02-20T20:17:46.261Z,9.14
2023-02-20T20:21:50.755Z,9.16
2023-02-20T20:25:53.672Z,9.13
2023-02-20T20:29:57.622Z,9.14
2023-02-20T20:34:04.534Z,9.14
2023-02-20T20:38:08.538Z,9.15
2023-02-20T20:42:11.450Z,9.13
2023-02-20T20:46:16.293Z,9.13
2023-02-20T20:50:22.968Z,9.13
2023-02-20T20:54:25.969Z,9.17
2023-02-20T20:58:29.010Z,9.20
2023-02-20T21:02:34.026Z,9.18
2023-02-20T21:06:38.822Z,9.19
2023-02-20T21:10:42.269Z,9.18
2023-02-20T21:14:45.524Z,9.17
2023-02-20T21:18:48.727Z,9.18
2023-02-20T21:23:12.958Z,9.20
2023-02-20T21:27:35.309Z,9.23
2023-02-20T21:32:05.885Z,9.23
2023-02-20T21:36:36.589Z,9.23
2023-02-20T21:40:48.757Z,9.24
2023-02-20T21:44:50.611Z,9.24
2023-02-20T21:48:54.469Z,9.25
2023-02-20T21:53:02.086Z,9.26
2023-02-20T21:57:08.459Z,9.25
2023-02-20T22:01:10.496Z,9.24
2023-02-20T22:05:13.186Z,9.24
2023-02-20T22:09:34.378Z,9.24
2023-02-20T22:13:56.563Z,9.26
2023-02-20T22:18:19.292Z,9.28
2023-02-20T22:22:55.752Z,9.28
2023-02-20T22:27:32.386Z,9.26
2023-02-20T22:31:54.548Z,9.23
2023-02-20T22:36:14.916Z,9.27
2023-02-20T22:40:35.842Z,9.24
2023-02-20T22:44:58.173Z,9.32
2023-02-20T22:49:21.438Z,9.27
2023-02-20T22:53:42.522Z,9.34
2023-02-20T22:58:03.098Z,9.31
2023-02-20T23:02:23.804Z,9.33
2023-02-20T23:06:46.830Z,9.34
2023-02-20T23:11:09.638Z,9.33
2023-02-20T23:15:41.057Z,9.33
2023-02-20T23:20:26.557Z,9.34
2023-02-20T23:25:12.010Z,9.38
2023-02-20T23:29:41.082Z,9.35
2023-02-20T23:34:02.125Z,9.34
2023-02-20T23:38:22.867Z,9.32
2023-02-20T23:42:43.350Z,9.32
2023-02-20T23:47:05.715Z,9.34
2023-02-20T23:51:28.419Z,9.34
2023-02-20T23:55:49.752Z,9.31
